Daisinmaru No.11 — JK5352 — position and weather

sailwx.info

Track history (hours):
 
Tides and Currents Weather Stations Pressure Air Temp Water Temp Dewpoint Dewpoint Depression Visibility Wind Speed Wind Dir Waves Ship Positions

Daisinmaru No.11

Last reported at 2016-Jun-28 00:33 UTC. Time now 2016-Jun-29 18:24 UTC.
Position N 35°28' E 139°60'.

Length 52 m; draft 5.2 m.

Type: Cargo ship. MMSI: 431000667.

Date/timePositionNaut miles runAvg speedWind from/ knotsBaromVisibWave heightAir tempDewpointWater temp
2016-Jun-28 00:33N 35°28' E 139°60'0 0.0
2016-Jun-27 23:33N 35°28' E 139°60'0 0.0
2016-Jun-27 22:33N 35°28' E 139°60'0 0.0
2016-Jun-27 21:33N 35°28' E 139°60'0 0.0
2016-Jun-27 09:03N 35°28' E 139°60'0 0.0
2016-Jun-27 08:33N 35°28' E 139°60'0 0.0
2016-Jun-27 07:33N 35°28' E 139°60'6 6.3
2016-Jun-27 06:33N 35°28' E 139°52'9 8.6
2016-Jun-27 05:33N 35°27' E 139°42'3 2.8
2016-Jun-27 04:33N 35°28' E 139°39'0 0.0
2016-Jun-27 03:33N 35°28' E 139°39'0 0.0
2016-Jun-27 02:33N 35°28' E 139°39'0 0.0
2016-Jun-27 01:33N 35°28' E 139°39'0 0.0
2016-Jun-27 00:33N 35°28' E 139°39'0 0.0
2016-Jun-26 23:33N 35°28' E 139°39'3 3.2
2016-Jun-26 22:33N 35°27' E 139°42'1010.4
2016-Jun-26 21:33N 35°29' E 139°54'  
2016-Jun-23 23:32N 35°27' E 139°59'0 0.0
2016-Jun-23 22:33N 35°27' E 139°59'0 0.5
2016-Jun-23 21:33N 35°27' E 139°60'0 0.0
2016-Jun-23 04:33N 35°27' E 139°60'2 2.0
2016-Jun-23 03:33N 35°29' E 139°58'10 9.6
2016-Jun-23 02:33N 35°30' E 139°47'3 3.3
2016-Jun-23 01:33N 35°29' E 139°43'0 0.0
2016-Jun-23 00:33N 35°29' E 139°43'0 0.0
2016-Jun-22 23:33N 35°29' E 139°43'6 5.7
2016-Jun-22 22:34N 35°30' E 139°50'9 8.7
2016-Jun-22 21:33N 35°27' E 139°60'0 0.0
2016-Jun-22 20:33N 35°27' E 139°60'0 0.0
2016-Jun-22 02:33N 35°27' E 139°60'0 0.2
2016-Jun-22 01:33N 35°27' E 139°60'0 0.0
2016-Jun-22 00:33N 35°27' E 139°60'3 2.8
2016-Jun-21 23:33N 35°29' E 139°57'9 8.7
2016-Jun-21 22:33N 35°30' E 139°46'2 0.0
2016-Jun-20 05:33N 35°32' E 139°46'0 0.0
2016-Jun-20 04:33N 35°32' E 139°46'0 0.0
2016-Jun-20 03:33N 35°32' E 139°46'0 0.0
2016-Jun-20 02:33N 35°32' E 139°46'0 0.0
2016-Jun-20 01:33N 35°32' E 139°46'0 0.0
2016-Jun-20 00:33N 35°32' E 139°46'0 0.0
2016-Jun-19 23:33N 35°32' E 139°46'1 0.8
2016-Jun-19 22:33N 35°31' E 139°46'10 9.8
2016-Jun-19 21:33N 35°29' E 139°58'2 2.2
2016-Jun-19 20:33N 35°28' E 139°60'0 0.0
2016-Jun-18 08:20N 35°28' E 139°60'4 5.7
2016-Jun-18 07:33N 35°32' E 140°02'3 3.2
2016-Jun-18 06:33N 35°32' E 140°06'0 0.0
2016-Jun-18 05:33N 35°32' E 140°06'6 5.8
2016-Jun-18 04:33N 35°32' E 139°59'10 9.8
2016-Jun-18 03:33N 35°30' E 139°47'4 3.6
2016-Jun-18 02:33N 35°29' E 139°43'0 0.0
2016-Jun-18 01:33N 35°29' E 139°43'3 2.9
2016-Jun-18 00:33N 35°31' E 139°46'  
Track history (hours):
 
Tides and Currents Weather Stations Pressure Air Temp Water Temp Dewpoint Dewpoint Depression Visibility Wind Speed Wind Dir Waves Ship Positions

Daisinmaru No.11

Last reported at 2016-Jun-28 00:33 UTC. Time now 2016-Jun-29 18:24 UTC.
Position N 35°28' E 139°60'.

Length 52 m; draft 5.2 m.

Type: Cargo ship. MMSI: 431000667.

Date/timePositionNaut miles runAvg speedWind from/ knotsBaromVisibWave heightAir tempDewpointWater temp
2016-Jun-28 00:33N 35°28' E 139°60'0 0.0
2016-Jun-27 23:33N 35°28' E 139°60'0 0.0
2016-Jun-27 22:33N 35°28' E 139°60'0 0.0
2016-Jun-27 21:33N 35°28' E 139°60'0 0.0
2016-Jun-27 09:03N 35°28' E 139°60'0 0.0
2016-Jun-27 08:33N 35°28' E 139°60'0 0.0
2016-Jun-27 07:33N 35°28' E 139°60'6 6.3
2016-Jun-27 06:33N 35°28' E 139°52'9 8.6
2016-Jun-27 05:33N 35°27' E 139°42'3 2.8
2016-Jun-27 04:33N 35°28' E 139°39'0 0.0
2016-Jun-27 03:33N 35°28' E 139°39'0 0.0
2016-Jun-27 02:33N 35°28' E 139°39'0 0.0
2016-Jun-27 01:33N 35°28' E 139°39'0 0.0
2016-Jun-27 00:33N 35°28' E 139°39'0 0.0
2016-Jun-26 23:33N 35°28' E 139°39'3 3.2
2016-Jun-26 22:33N 35°27' E 139°42'1010.4
2016-Jun-26 21:33N 35°29' E 139°54'  
2016-Jun-23 23:32N 35°27' E 139°59'0 0.0
2016-Jun-23 22:33N 35°27' E 139°59'0 0.5
2016-Jun-23 21:33N 35°27' E 139°60'0 0.0
2016-Jun-23 04:33N 35°27' E 139°60'2 2.0
2016-Jun-23 03:33N 35°29' E 139°58'10 9.6
2016-Jun-23 02:33N 35°30' E 139°47'3 3.3
2016-Jun-23 01:33N 35°29' E 139°43'0 0.0
2016-Jun-23 00:33N 35°29' E 139°43'0 0.0
2016-Jun-22 23:33N 35°29' E 139°43'6 5.7
2016-Jun-22 22:34N 35°30' E 139°50'9 8.7
2016-Jun-22 21:33N 35°27' E 139°60'0 0.0
2016-Jun-22 20:33N 35°27' E 139°60'0 0.0
2016-Jun-22 02:33N 35°27' E 139°60'0 0.2
2016-Jun-22 01:33N 35°27' E 139°60'0 0.0
2016-Jun-22 00:33N 35°27' E 139°60'3 2.8
2016-Jun-21 23:33N 35°29' E 139°57'9 8.7
2016-Jun-21 22:33N 35°30' E 139°46'2 0.0
2016-Jun-20 05:33N 35°32' E 139°46'0 0.0
2016-Jun-20 04:33N 35°32' E 139°46'0 0.0
2016-Jun-20 03:33N 35°32' E 139°46'0 0.0
2016-Jun-20 02:33N 35°32' E 139°46'0 0.0
2016-Jun-20 01:33N 35°32' E 139°46'0 0.0
2016-Jun-20 00:33N 35°32' E 139°46'0 0.0
2016-Jun-19 23:33N 35°32' E 139°46'1 0.8
2016-Jun-19 22:33N 35°31' E 139°46'10 9.8
2016-Jun-19 21:33N 35°29' E 139°58'2 2.2
2016-Jun-19 20:33N 35°28' E 139°60'0 0.0
2016-Jun-18 08:20N 35°28' E 139°60'4 5.7
2016-Jun-18 07:33N 35°32' E 140°02'3 3.2
2016-Jun-18 06:33N 35°32' E 140°06'0 0.0
2016-Jun-18 05:33N 35°32' E 140°06'6 5.8
2016-Jun-18 04:33N 35°32' E 139°59'10 9.8
2016-Jun-18 03:33N 35°30' E 139°47'4 3.6
2016-Jun-18 02:33N 35°29' E 139°43'0 0.0
2016-Jun-18 01:33N 35°29' E 139°43'3 2.9
2016-Jun-18 00:33N 35°31' E 139°46'  

Dump ship's entire track history